createdAt,value
2018-09-06T00:00:32.798Z,26.95
2018-09-06T00:05:26.137Z,23.90
2018-09-06T00:10:19.570Z,23.80
2018-09-06T00:15:12.840Z,21.55
2018-09-06T00:20:06.155Z,20.52
2018-09-06T00:24:59.582Z,21.50
2018-09-06T00:29:52.867Z,21.95
2018-09-06T00:34:46.904Z,24.25
2018-09-06T00:39:40.233Z,23.55
2018-09-06T00:44:33.831Z,24.85
2018-09-06T00:49:27.201Z,23.90
2018-09-06T00:54:20.541Z,22.05
2018-09-06T00:59:13.954Z,23.15
2018-09-06T01:04:07.351Z,22.02
2018-09-06T01:09:00.610Z,22.27
2018-09-06T01:13:53.889Z,21.30
2018-09-06T01:18:47.195Z,22.77
2018-09-06T01:23:40.522Z,22.45
2018-09-06T01:28:33.853Z,21.17
2018-09-06T01:33:27.146Z,22.60
2018-09-06T01:38:20.460Z,22.60
2018-09-06T01:43:13.746Z,25.10
2018-09-06T01:48:07.107Z,31.20
2018-09-06T01:53:00.450Z,32.63
2018-09-06T01:57:53.717Z,30.60
2018-09-06T02:02:47.275Z,29.30
2018-09-06T02:07:40.541Z,28.77
2018-09-06T02:12:33.909Z,27.60
2018-09-06T02:17:27.155Z,28.52
2018-09-06T02:22:20.401Z,26.35
2018-09-06T02:27:13.699Z,28.57
2018-09-06T02:32:07.157Z,29.25
2018-09-06T02:37:00.521Z,30.75
2018-09-06T02:41:53.809Z,33.78
2018-09-06T02:46:47.116Z,32.98
2018-09-06T02:51:40.417Z,33.18
2018-09-06T02:56:33.737Z,34.13
2018-09-06T03:01:27.054Z,34.98
2018-09-06T03:06:20.345Z,35.58
2018-09-06T03:11:17.901Z,35.35
2018-09-06T03:16:11.262Z,31.42
2018-09-06T03:21:05.698Z,27.85
2018-09-06T03:25:59.627Z,32.40
2018-09-06T03:30:52.963Z,31.70
2018-09-06T03:35:46.325Z,30.92
2018-09-06T03:40:39.677Z,29.02
2018-09-06T03:45:32.990Z,29.25
2018-09-06T03:50:26.319Z,31.82
2018-09-06T03:55:19.672Z,30.15
2018-09-06T04:00:13.081Z,31.30
2018-09-06T04:05:06.474Z,31.30
2018-09-06T04:09:59.777Z,30.12
2018-09-06T04:14:53.063Z,30.85
2018-09-06T04:19:46.427Z,33.08
2018-09-06T04:24:39.745Z,32.20
2018-09-06T04:29:33.515Z,31.75
2018-09-06T04:34:26.823Z,32.67
2018-09-06T04:39:20.080Z,31.80
2018-09-06T04:44:13.418Z,32.83
2018-09-06T04:49:06.701Z,32.75
2018-09-06T04:54:00.005Z,32.53
2018-09-06T04:58:53.413Z,32.10
2018-09-06T05:03:46.707Z,33.28
2018-09-06T05:08:40.010Z,36.33
2018-09-06T05:13:33.391Z,35.65
2018-09-06T05:18:26.743Z,37.40
2018-09-06T05:23:20.083Z,33.90
2018-09-06T05:28:20.203Z,35.15
2018-09-06T05:33:13.537Z,34.83
2018-09-06T05:38:07.544Z,33.48
2018-09-06T05:43:00.877Z,33.02
2018-09-06T05:47:57.817Z,31.05
2018-09-06T05:52:52.291Z,31.68
2018-09-06T05:57:45.602Z,32.48
2018-09-06T06:02:38.980Z,33.60
2018-09-06T06:07:49.309Z,34.03
2018-09-06T06:12:42.625Z,32.50
2018-09-06T06:17:36.575Z,32.58
2018-09-06T06:22:29.936Z,31.12
2018-09-06T06:27:23.325Z,32.48
2018-09-06T06:32:17.182Z,30.12
2018-09-06T06:37:10.495Z,31.12
2018-09-06T06:42:03.873Z,30.90
2018-09-06T06:46:57.234Z,29.63
2018-09-06T06:51:50.566Z,27.55
2018-09-06T06:56:43.883Z,28.73
2018-09-06T07:01:37.535Z,27.67
2018-09-06T07:06:30.824Z,30.92
2018-09-06T07:11:24.173Z,28.70
2018-09-06T07:16:17.435Z,28.35
2018-09-06T07:21:10.957Z,27.30
2018-09-06T07:26:04.301Z,28.32
2018-09-06T07:30:59.111Z,28.83
2018-09-06T07:35:52.430Z,28.42
2018-09-06T07:40:45.756Z,27.37
2018-09-06T07:45:39.206Z,30.10
2018-09-06T07:50:32.545Z,28.30
2018-09-06T07:55:25.929Z,27.22
2018-09-06T08:00:19.301Z,26.77
2018-09-06T08:05:14.217Z,26.62
2018-09-06T08:10:07.603Z,26.80
2018-09-06T08:15:00.985Z,28.12
2018-09-06T08:19:55.880Z,28.75
2018-09-06T08:24:49.307Z,27.77
2018-09-06T08:29:42.797Z,30.62
2018-09-06T08:34:36.188Z,31.90
2018-09-06T08:39:29.542Z,31.97
2018-09-06T08:44:23.422Z,31.07
2018-09-06T08:49:16.779Z,32.40
2018-09-06T08:54:10.158Z,33.28
2018-09-06T08:59:03.582Z,32.60
2018-09-06T09:03:57.241Z,31.27
2018-09-06T09:08:51.192Z,32.33
2018-09-06T09:13:44.610Z,34.40
2018-09-06T09:18:38.143Z,36.40
2018-09-06T09:23:31.588Z,31.37
2018-09-06T09:28:24.927Z,33.55
2018-09-06T09:33:18.272Z,32.78
2018-09-06T09:38:11.770Z,34.15
2018-09-06T09:43:05.657Z,35.20
2018-09-06T09:48:00.045Z,35.95
2018-09-06T09:52:53.504Z,35.15
2018-09-06T09:57:46.888Z,34.40
2018-09-06T10:02:46.064Z,38.00
2018-09-06T10:07:45.250Z,39.75
2018-09-06T10:12:39.645Z,38.53
2018-09-06T10:17:34.257Z,38.28
2018-09-06T10:22:27.629Z,39.27
2018-09-06T10:27:21.552Z,38.90
2018-09-06T10:32:14.974Z,37.53
2018-09-06T10:37:08.892Z,34.98
2018-09-06T10:42:02.307Z,33.83
2018-09-06T10:46:55.737Z,32.45
2018-09-06T10:51:49.117Z,32.60
2018-09-06T10:56:43.111Z,34.92
2018-09-06T11:01:36.569Z,32.80
2018-09-06T11:06:29.966Z,34.20
2018-09-06T11:11:23.284Z,32.75
2018-09-06T11:16:17.916Z,29.60
2018-09-06T11:21:11.358Z,30.55
2018-09-06T11:26:04.762Z,29.77
2018-09-06T11:30:58.073Z,28.23
2018-09-06T11:35:51.554Z,28.80
2018-09-06T11:40:46.460Z,28.55
2018-09-06T11:45:40.425Z,27.65
2018-09-06T11:50:33.765Z,26.10
2018-09-06T11:55:27.064Z,21.27
2018-09-06T12:00:20.521Z,20.55
2018-09-06T12:05:13.857Z,21.15
2018-09-06T12:10:07.357Z,23.32
2018-09-06T12:15:00.771Z,26.30
2018-09-06T12:19:54.142Z,27.52
2018-09-06T12:24:47.610Z,27.35
2018-09-06T12:29:41.094Z,27.58
2018-09-06T12:34:34.399Z,28.32
2018-09-06T12:39:28.031Z,28.75
2018-09-06T12:44:21.366Z,26.82
2018-09-06T12:49:14.703Z,26.17
2018-09-06T12:54:08.065Z,24.18
2018-09-06T12:59:01.475Z,25.35
2018-09-06T13:03:54.867Z,24.20
2018-09-06T13:08:48.335Z,25.75
2018-09-06T13:13:41.997Z,25.00
2018-09-06T13:18:35.553Z,26.10
2018-09-06T13:23:28.810Z,24.18
2018-09-06T13:28:22.228Z,25.20
2018-09-06T13:33:15.620Z,24.45
2018-09-06T13:38:09.181Z,25.60
2018-09-06T13:43:02.564Z,25.72
2018-09-06T13:47:55.897Z,26.52
2018-09-06T13:52:49.240Z,27.73
2018-09-06T13:57:42.698Z,30.48
2018-09-06T14:02:36.792Z,27.40
2018-09-06T14:07:30.136Z,29.32
2018-09-06T14:12:23.814Z,29.00
2018-09-06T14:17:17.808Z,25.65
2018-09-06T14:22:11.164Z,20.72
2018-09-06T14:27:04.772Z,23.85
2018-09-06T14:31:58.376Z,27.95
2018-09-06T14:37:06.384Z,26.20
2018-09-06T14:42:00.881Z,21.80
2018-09-06T14:46:54.552Z,22.50
2018-09-06T14:51:48.721Z,22.32
2018-09-06T14:56:43.252Z,22.20
2018-09-06T15:01:36.803Z,21.93
2018-09-06T15:06:30.721Z,23.00
2018-09-06T15:11:24.132Z,23.87
2018-09-06T15:16:18.591Z,23.73
2018-09-06T15:21:11.911Z,22.85
2018-09-06T15:26:05.246Z,25.15
2018-09-06T15:30:58.590Z,23.05
2018-09-06T15:35:52.020Z,25.62
2018-09-06T15:40:45.331Z,26.85
2018-09-06T15:45:38.706Z,25.82
2018-09-06T15:50:32.074Z,23.55
2018-09-06T15:55:25.419Z,25.62
2018-09-06T16:00:19.020Z,24.98
2018-09-06T16:05:12.389Z,24.70
2018-09-06T16:10:06.423Z,23.62
2018-09-06T16:14:59.791Z,25.32
2018-09-06T16:19:53.150Z,23.95
2018-09-06T16:24:46.632Z,24.60
2018-09-06T16:29:40.986Z,25.62
2018-09-06T16:34:34.346Z,25.08
2018-09-06T16:39:27.669Z,24.45
2018-09-06T16:44:20.984Z,24.20
2018-09-06T16:49:14.344Z,25.30
2018-09-06T16:54:07.637Z,24.47
2018-09-06T16:59:00.975Z,25.25
2018-09-06T17:03:54.350Z,25.70
2018-09-06T17:08:47.639Z,26.65
2018-09-06T17:13:41.039Z,28.35
2018-09-06T17:18:34.365Z,29.00
2018-09-06T17:23:27.716Z,27.05
2018-09-06T17:28:21.195Z,25.10
2018-09-06T17:33:14.617Z,25.97
2018-09-06T17:38:08.477Z,26.87
2018-09-06T17:43:01.839Z,27.07
2018-09-06T17:47:55.221Z,27.48
2018-09-06T17:52:48.620Z,29.60
2018-09-06T17:57:41.935Z,28.70
2018-09-06T18:02:35.330Z,28.17
2018-09-06T18:07:28.704Z,28.23
2018-09-06T18:12:22.100Z,28.25
2018-09-06T18:17:16.540Z,27.15
2018-09-06T18:22:09.861Z,27.25
2018-09-06T18:27:03.253Z,30.93
2018-09-06T18:31:56.852Z,29.60
2018-09-06T18:36:50.144Z,29.72
2018-09-06T18:41:43.804Z,33.42
2018-09-06T18:46:37.879Z,29.10
2018-09-06T18:51:31.287Z,28.52
2018-09-06T18:56:24.932Z,26.27
2018-09-06T19:01:18.491Z,26.10
2018-09-06T19:06:12.303Z,23.02
2018-09-06T19:11:05.985Z,22.95
2018-09-06T19:16:00.395Z,15.15
2018-09-06T19:20:55.613Z,11.20
2018-09-06T19:25:49.001Z,9.18
2018-09-06T19:30:42.328Z,10.43
2018-09-06T19:35:35.979Z,10.10
2018-09-06T19:40:29.371Z,10.95
2018-09-06T19:45:22.832Z,9.43
2018-09-06T19:50:16.184Z,10.00
2018-09-06T19:55:09.477Z,9.48
2018-09-06T20:00:04.252Z,9.33
2018-09-06T20:04:58.483Z,9.38
2018-09-06T20:09:52.107Z,9.68
2018-09-06T20:14:45.503Z,9.50
2018-09-06T20:19:38.923Z,9.60
2018-09-06T20:24:32.303Z,8.65
2018-09-06T20:29:25.893Z,9.95
2018-09-06T20:34:19.268Z,9.28
2018-09-06T20:39:13.521Z,9.53
2018-09-06T20:44:06.933Z,9.38
2018-09-06T20:49:00.323Z,8.60
2018-09-06T20:53:53.977Z,8.08
2018-09-06T20:58:47.448Z,7.80
2018-09-06T21:03:41.902Z,7.47
2018-09-06T21:08:35.337Z,7.42
2018-09-06T21:13:29.316Z,7.43
2018-09-06T21:18:22.614Z,6.47
2018-09-06T21:23:15.949Z,6.87
2018-09-06T21:28:09.338Z,6.37
2018-09-06T21:33:02.661Z,6.90
2018-09-06T21:37:55.995Z,6.85
2018-09-06T21:42:49.303Z,6.58
2018-09-06T21:47:42.586Z,6.35
2018-09-06T21:52:35.896Z,6.45
2018-09-06T21:57:29.233Z,6.33
2018-09-06T22:02:28.073Z,6.42
2018-09-06T22:07:21.422Z,6.30
2018-09-06T22:12:17.699Z,6.42
2018-09-06T22:17:11.000Z,7.50
2018-09-06T22:22:04.388Z,7.15
2018-09-06T22:26:57.737Z,7.08
2018-09-06T22:31:51.117Z,7.42
2018-09-06T22:36:44.444Z,7.05
2018-09-06T22:41:37.806Z,7.03
2018-09-06T22:46:31.134Z,7.15
2018-09-06T22:51:24.427Z,6.87
2018-09-06T22:56:17.783Z,7.30
2018-09-06T23:01:11.121Z,7.05
2018-09-06T23:06:04.665Z,7.08
2018-09-06T23:10:58.050Z,6.70
2018-09-06T23:15:51.562Z,7.60
2018-09-06T23:20:44.881Z,6.58
2018-09-06T23:25:38.814Z,7.20
2018-09-06T23:30:33.275Z,6.87
2018-09-06T23:35:26.605Z,8.08
2018-09-06T23:40:19.930Z,7.22
2018-09-06T23:45:13.249Z,6.80
2018-09-06T23:50:06.609Z,7.87
2018-09-06T23:54:59.858Z,7.47
2018-09-06T23:59:53.118Z,7.92
